sensor_id;sensor_type;location;lat;lon;timestamp;temperature;humidity
4787;DHT22;62338;48.832;9.422;2024-03-02T00:01:36;5.30;99.90
4787;DHT22;62338;48.832;9.422;2024-03-02T00:03:38;5.30;99.90
4787;DHT22;62338;48.832;9.422;2024-03-02T00:05:40;5.30;99.90
4787;DHT22;62338;48.832;9.422;2024-03-02T00:07:44;5.30;99.90
4787;DHT22;62338;48.832;9.422;2024-03-02T00:09:46;5.30;99.90
4787;DHT22;62338;48.832;9.422;2024-03-02T00:11:47;5.20;99.90
4787;DHT22;62338;48.832;9.422;2024-03-02T00:13:52;5.20;99.90
4787;DHT22;62338;48.832;9.422;2024-03-02T00:15:55;5.20;99.90
4787;DHT22;62338;48.832;9.422;2024-03-02T00:17:57;5.10;99.90
4787;DHT22;62338;48.832;9.422;2024-03-02T00:20:00;5.10;99.90
4787;DHT22;62338;48.832;9.422;2024-03-02T00:22:07;5.00;99.90
4787;DHT22;62338;48.832;9.422;2024-03-02T00:24:21;5.00;99.90
4787;DHT22;62338;48.832;9.422;2024-03-02T00:26:25;5.00;99.90
4787;DHT22;62338;48.832;9.422;2024-03-02T00:28:35;5.10;99.90
4787;DHT22;62338;48.832;9.422;2024-03-02T00:30:57;5.00;99.90
4787;DHT22;62338;48.832;9.422;2024-03-02T00:32:59;5.10;99.90
4787;DHT22;62338;48.832;9.422;2024-03-02T00:35:01;5.00;99.90
4787;DHT22;62338;48.832;9.422;2024-03-02T00:37:03;4.90;99.90
4787;DHT22;62338;48.832;9.422;2024-03-02T00:39:05;4.80;99.90
4787;DHT22;62338;48.832;9.422;2024-03-02T00:41:37;4.70;99.90
4787;DHT22;62338;48.832;9.422;2024-03-02T00:43:47;4.80;99.90
4787;DHT22;62338;48.832;9.422;2024-03-02T00:45:49;4.80;99.90
4787;DHT22;62338;48.832;9.422;2024-03-02T00:47:52;4.80;99.90
4787;DHT22;62338;48.832;9.422;2024-03-02T00:49:54;4.80;99.90
4787;DHT22;62338;48.832;9.422;2024-03-02T00:51:56;4.80;99.90
4787;DHT22;62338;48.832;9.422;2024-03-02T00:54:00;4.80;99.90
4787;DHT22;62338;48.832;9.422;2024-03-02T00:56:02;4.70;99.90
4787;DHT22;62338;48.832;9.422;2024-03-02T00:58:04;4.70;99.90
4787;DHT22;62338;48.832;9.422;2024-03-02T01:00:06;4.70;99.90
4787;DHT22;62338;48.832;9.422;2024-03-02T01:02:11;4.70;99.90
4787;DHT22;62338;48.832;9.422;2024-03-02T01:04:13;4.60;99.90
4787;DHT22;62338;48.832;9.422;2024-03-02T01:06:16;4.60;99.90
4787;DHT22;62338;48.832;9.422;2024-03-02T01:08:18;4.60;99.90
4787;DHT22;62338;48.832;9.422;2024-03-02T01:10:20;4.70;99.90
4787;DHT22;62338;48.832;9.422;2024-03-02T01:12:22;4.70;99.90
4787;DHT22;62338;48.832;9.422;2024-03-02T01:14:23;4.70;99.90
4787;DHT22;62338;48.832;9.422;2024-03-02T01:16:25;4.70;99.90
4787;DHT22;62338;48.832;9.422;2024-03-02T01:18:27;4.60;99.90
4787;DHT22;62338;48.832;9.422;2024-03-02T01:20:29;4.60;99.90
4787;DHT22;62338;48.832;9.422;2024-03-02T01:22:30;4.60;99.90
4787;DHT22;62338;48.832;9.422;2024-03-02T01:24:32;4.70;99.90
4787;DHT22;62338;48.832;9.422;2024-03-02T01:26:34;4.70;99.90
4787;DHT22;62338;48.832;9.422;2024-03-02T01:28:36;4.70;99.90
4787;DHT22;62338;48.832;9.422;2024-03-02T01:30:37;4.80;99.90
4787;DHT22;62338;48.832;9.422;2024-03-02T01:32:39;4.80;99.90
4787;DHT22;62338;48.832;9.422;2024-03-02T01:34:41;4.80;99.90
4787;DHT22;62338;48.832;9.422;2024-03-02T01:36:42;4.80;99.90
4787;DHT22;62338;48.832;9.422;2024-03-02T01:38:44;4.70;99.90
4787;DHT22;62338;48.832;9.422;2024-03-02T01:40:46;4.70;99.90
4787;DHT22;62338;48.832;9.422;2024-03-02T01:42:47;4.70;99.90
4787;DHT22;62338;48.832;9.422;2024-03-02T01:44:49;4.70;99.90
4787;DHT22;62338;48.832;9.422;2024-03-02T01:46:51;4.70;99.90
4787;DHT22;62338;48.832;9.422;2024-03-02T01:48:53;4.70;99.90
4787;DHT22;62338;48.832;9.422;2024-03-02T01:50:55;4.60;99.90
4787;DHT22;62338;48.832;9.422;2024-03-02T01:52:57;4.70;99.90
4787;DHT22;62338;48.832;9.422;2024-03-02T01:54:59;4.70;99.90
4787;DHT22;62338;48.832;9.422;2024-03-02T01:57:01;4.70;99.90
4787;DHT22;62338;48.832;9.422;2024-03-02T01:59:03;4.70;99.90
4787;DHT22;62338;48.832;9.422;2024-03-02T02:01:05;4.70;99.90
4787;DHT22;62338;48.832;9.422;2024-03-02T02:03:07;4.70;99.90
4787;DHT22;62338;48.832;9.422;2024-03-02T02:05:09;4.70;99.90
4787;DHT22;62338;48.832;9.422;2024-03-02T02:07:11;4.60;99.90
4787;DHT22;62338;48.832;9.422;2024-03-02T02:09:13;4.60;99.90
4787;DHT22;62338;48.832;9.422;2024-03-02T02:11:17;4.60;99.90
4787;DHT22;62338;48.832;9.422;2024-03-02T02:13:19;4.60;99.90
4787;DHT22;62338;48.832;9.422;2024-03-02T02:15:30;4.60;99.90
4787;DHT22;62338;48.832;9.422;2024-03-02T02:17:32;4.60;99.90
4787;DHT22;62338;48.832;9.422;2024-03-02T02:19:34;4.50;99.90
4787;DHT22;62338;48.832;9.422;2024-03-02T02:21:36;4.50;99.90
4787;DHT22;62338;48.832;9.422;2024-03-02T02:23:38;4.50;99.90
4787;DHT22;62338;48.832;9.422;2024-03-02T02:25:39;4.50;99.90
4787;DHT22;62338;48.832;9.422;2024-03-02T02:27:41;4.40;99.90
4787;DHT22;62338;48.832;9.422;2024-03-02T02:29:43;4.40;99.90
4787;DHT22;62338;48.832;9.422;2024-03-02T02:31:44;4.40;99.90
4787;DHT22;62338;48.832;9.422;2024-03-02T02:33:46;4.40;99.90
4787;DHT22;62338;48.832;9.422;2024-03-02T02:35:48;4.40;99.90
4787;DHT22;62338;48.832;9.422;2024-03-02T02:37:50;4.30;99.90
4787;DHT22;62338;48.832;9.422;2024-03-02T02:39:53;4.20;99.90
4787;DHT22;62338;48.832;9.422;2024-03-02T02:41:55;4.20;99.90
4787;DHT22;62338;48.832;9.422;2024-03-02T02:43:57;4.20;99.90
4787;DHT22;62338;48.832;9.422;2024-03-02T02:45:58;4.30;99.90
4787;DHT22;62338;48.832;9.422;2024-03-02T02:48:00;4.20;99.90
4787;DHT22;62338;48.832;9.422;2024-03-02T02:50:06;4.30;99.90
4787;DHT22;62338;48.832;9.422;2024-03-02T02:52:08;4.30;99.90
4787;DHT22;62338;48.832;9.422;2024-03-02T02:54:10;4.40;99.90
4787;DHT22;62338;48.832;9.422;2024-03-02T02:56:11;4.40;99.90
4787;DHT22;62338;48.832;9.422;2024-03-02T02:58:14;4.40;99.90
4787;DHT22;62338;48.832;9.422;2024-03-02T03:00:16;4.40;99.90
4787;DHT22;62338;48.832;9.422;2024-03-02T03:02:20;4.30;99.90
4787;DHT22;62338;48.832;9.422;2024-03-02T03:04:22;4.30;99.90
4787;DHT22;62338;48.832;9.422;2024-03-02T03:06:24;4.30;99.90
4787;DHT22;62338;48.832;9.422;2024-03-02T03:08:25;4.30;99.90
4787;DHT22;62338;48.832;9.422;2024-03-02T03:10:27;4.30;99.90
4787;DHT22;62338;48.832;9.422;2024-03-02T03:12:30;4.30;99.90
4787;DHT22;62338;48.832;9.422;2024-03-02T03:14:32;4.30;99.90
4787;DHT22;62338;48.832;9.422;2024-03-02T03:16:34;4.30;99.90
4787;DHT22;62338;48.832;9.422;2024-03-02T03:18:36;4.20;99.90
4787;DHT22;62338;48.832;9.422;2024-03-02T03:20:38;4.20;99.90
4787;DHT22;62338;48.832;9.422;2024-03-02T03:22:39;4.30;99.90
4787;DHT22;62338;48.832;9.422;2024-03-02T03:24:41;4.30;99.90
4787;DHT22;62338;48.832;9.422;2024-03-02T03:26:43;4.30;99.90
4787;DHT22;62338;48.832;9.422;2024-03-02T03:28:44;4.30;99.90
4787;DHT22;62338;48.832;9.422;2024-03-02T03:30:46;4.30;99.90
4787;DHT22;62338;48.832;9.422;2024-03-02T03:32:48;4.40;99.90
4787;DHT22;62338;48.832;9.422;2024-03-02T03:34:50;4.40;99.90
4787;DHT22;62338;48.832;9.422;2024-03-02T03:36:51;4.50;99.90
4787;DHT22;62338;48.832;9.422;2024-03-02T03:38:53;4.50;99.90
4787;DHT22;62338;48.832;9.422;2024-03-02T03:40:55;4.50;99.90
4787;DHT22;62338;48.832;9.422;2024-03-02T03:42:57;4.50;99.90
4787;DHT22;62338;48.832;9.422;2024-03-02T03:44:59;4.40;99.90
4787;DHT22;62338;48.832;9.422;2024-03-02T03:47:01;4.40;99.90
4787;DHT22;62338;48.832;9.422;2024-03-02T03:49:04;4.30;99.90
4787;DHT22;62338;48.832;9.422;2024-03-02T03:51:06;4.30;99.90
4787;DHT22;62338;48.832;9.422;2024-03-02T03:53:08;4.40;99.90
4787;DHT22;62338;48.832;9.422;2024-03-02T03:55:10;4.30;99.90
4787;DHT22;62338;48.832;9.422;2024-03-02T03:57:11;4.30;99.90
4787;DHT22;62338;48.832;9.422;2024-03-02T03:59:13;4.30;99.90
4787;DHT22;62338;48.832;9.422;2024-03-02T04:01:15;4.40;99.90
4787;DHT22;62338;48.832;9.422;2024-03-02T04:03:17;4.50;99.90
4787;DHT22;62338;48.832;9.422;2024-03-02T04:05:18;4.40;99.90
4787;DHT22;62338;48.832;9.422;2024-03-02T04:07:20;4.50;99.90
4787;DHT22;62338;48.832;9.422;2024-03-02T04:09:22;4.60;99.90
4787;DHT22;62338;48.832;9.422;2024-03-02T04:11:24;4.60;99.90
4787;DHT22;62338;48.832;9.422;2024-03-02T04:13:25;4.60;99.90
4787;DHT22;62338;48.832;9.422;2024-03-02T04:15:27;4.60;99.90
4787;DHT22;62338;48.832;9.422;2024-03-02T04:17:29;4.60;99.90
4787;DHT22;62338;48.832;9.422;2024-03-02T04:19:32;4.60;99.90
4787;DHT22;62338;48.832;9.422;2024-03-02T04:21:34;4.70;99.90
4787;DHT22;62338;48.832;9.422;2024-03-02T04:23:35;4.70;99.90
4787;DHT22;62338;48.832;9.422;2024-03-02T04:25:37;4.70;99.90
4787;DHT22;62338;48.832;9.422;2024-03-02T04:27:39;4.70;99.90
4787;DHT22;62338;48.832;9.422;2024-03-02T04:29:40;4.70;99.90
4787;DHT22;62338;48.832;9.422;2024-03-02T04:31:42;4.70;99.90
4787;DHT22;62338;48.832;9.422;2024-03-02T04:33:44;4.80;99.90
4787;DHT22;62338;48.832;9.422;2024-03-02T04:35:46;4.70;99.90
4787;DHT22;62338;48.832;9.422;2024-03-02T04:37:48;4.70;99.90
4787;DHT22;62338;48.832;9.422;2024-03-02T04:39:49;4.70;99.90
4787;DHT22;62338;48.832;9.422;2024-03-02T04:41:51;4.60;99.90
4787;DHT22;62338;48.832;9.422;2024-03-02T04:43:53;4.60;99.90
4787;DHT22;62338;48.832;9.422;2024-03-02T04:45:54;4.60;99.90
4787;DHT22;62338;48.832;9.422;2024-03-02T04:47:56;4.60;99.90
4787;DHT22;62338;48.832;9.422;2024-03-02T04:49:58;4.70;99.90
4787;DHT22;62338;48.832;9.422;2024-03-02T04:52:00;4.60;99.90
4787;DHT22;62338;48.832;9.422;2024-03-02T04:54:01;4.60;99.90
4787;DHT22;62338;48.832;9.422;2024-03-02T04:56:03;4.50;99.90
4787;DHT22;62338;48.832;9.422;2024-03-02T04:58:22;4.50;99.90
4787;DHT22;62338;48.832;9.422;2024-03-02T05:00:23;4.50;99.90
4787;DHT22;62338;48.832;9.422;2024-03-02T05:02:25;4.50;99.90
4787;DHT22;62338;48.832;9.422;2024-03-02T05:04:27;4.40;99.90
4787;DHT22;62338;48.832;9.422;2024-03-02T05:06:29;4.50;99.90
4787;DHT22;62338;48.832;9.422;2024-03-02T05:08:31;4.40;99.90
4787;DHT22;62338;48.832;9.422;2024-03-02T05:10:33;4.40;99.90
4787;DHT22;62338;48.832;9.422;2024-03-02T05:12:34;4.50;99.90
4787;DHT22;62338;48.832;9.422;2024-03-02T05:14:56;4.50;99.90
4787;DHT22;62338;48.832;9.422;2024-03-02T05:16:58;4.50;99.90
4787;DHT22;62338;48.832;9.422;2024-03-02T05:19:00;4.50;99.90
4787;DHT22;62338;48.832;9.422;2024-03-02T05:21:02;4.60;99.90
4787;DHT22;62338;48.832;9.422;2024-03-02T05:23:04;4.50;99.90
4787;DHT22;62338;48.832;9.422;2024-03-02T05:25:06;4.50;99.90
4787;DHT22;62338;48.832;9.422;2024-03-02T05:27:09;4.50;99.90
4787;DHT22;62338;48.832;9.422;2024-03-02T05:29:10;4.40;99.90
4787;DHT22;62338;48.832;9.422;2024-03-02T05:31:15;4.40;99.90
4787;DHT22;62338;48.832;9.422;2024-03-02T05:33:17;4.40;99.90
4787;DHT22;62338;48.832;9.422;2024-03-02T05:35:18;4.50;99.90
4787;DHT22;62338;48.832;9.422;2024-03-02T05:37:20;4.40;99.90
4787;DHT22;62338;48.832;9.422;2024-03-02T05:39:22;4.40;99.90
4787;DHT22;62338;48.832;9.422;2024-03-02T05:41:23;4.40;99.90
4787;DHT22;62338;48.832;9.422;2024-03-02T05:43:25;4.40;99.90
4787;DHT22;62338;48.832;9.422;2024-03-02T05:45:27;4.50;99.90
4787;DHT22;62338;48.832;9.422;2024-03-02T05:47:29;4.40;99.90
4787;DHT22;62338;48.832;9.422;2024-03-02T05:49:30;4.40;99.90
4787;DHT22;62338;48.832;9.422;2024-03-02T05:51:32;4.30;99.90
4787;DHT22;62338;48.832;9.422;2024-03-02T05:53:34;4.30;99.90
4787;DHT22;62338;48.832;9.422;2024-03-02T05:55:36;4.20;99.90
4787;DHT22;62338;48.832;9.422;2024-03-02T05:57:37;4.10;99.90
4787;DHT22;62338;48.832;9.422;2024-03-02T05:59:42;4.10;99.90
4787;DHT22;62338;48.832;9.422;2024-03-02T06:01:46;4.10;99.90
4787;DHT22;62338;48.832;9.422;2024-03-02T06:03:48;4.00;99.90
4787;DHT22;62338;48.832;9.422;2024-03-02T06:05:50;4.00;99.90
4787;DHT22;62338;48.832;9.422;2024-03-02T06:07:53;4.00;99.90
4787;DHT22;62338;48.832;9.422;2024-03-02T06:09:55;4.00;99.90
4787;DHT22;62338;48.832;9.422;2024-03-02T06:11:57;4.10;99.90
4787;DHT22;62338;48.832;9.422;2024-03-02T06:13:58;4.10;99.90
4787;DHT22;62338;48.832;9.422;2024-03-02T06:16:00;4.10;99.90
4787;DHT22;62338;48.832;9.422;2024-03-02T06:18:02;4.20;99.90
4787;DHT22;62338;48.832;9.422;2024-03-02T06:20:04;4.20;99.90
4787;DHT22;62338;48.832;9.422;2024-03-02T06:22:07;4.30;99.90
4787;DHT22;62338;48.832;9.422;2024-03-02T06:24:11;4.20;99.90
4787;DHT22;62338;48.832;9.422;2024-03-02T06:26:12;4.20;99.90
4787;DHT22;62338;48.832;9.422;2024-03-02T06:28:14;4.30;99.90
4787;DHT22;62338;48.832;9.422;2024-03-02T06:30:19;4.30;99.90
4787;DHT22;62338;48.832;9.422;2024-03-02T06:32:20;4.30;99.90
4787;DHT22;62338;48.832;9.422;2024-03-02T06:34:22;4.30;99.90
4787;DHT22;62338;48.832;9.422;2024-03-02T06:36:24;4.20;99.90
4787;DHT22;62338;48.832;9.422;2024-03-02T06:38:26;4.20;99.90
4787;DHT22;62338;48.832;9.422;2024-03-02T06:40:27;4.20;99.90
4787;DHT22;62338;48.832;9.422;2024-03-02T06:42:29;4.20;99.90
4787;DHT22;62338;48.832;9.422;2024-03-02T06:44:35;4.30;99.90
4787;DHT22;62338;48.832;9.422;2024-03-02T06:46:37;4.30;99.90
4787;DHT22;62338;48.832;9.422;2024-03-02T06:48:39;4.40;99.90
4787;DHT22;62338;48.832;9.422;2024-03-02T06:50:40;4.40;99.90
4787;DHT22;62338;48.832;9.422;2024-03-02T06:52:42;4.40;99.90
4787;DHT22;62338;48.832;9.422;2024-03-02T06:54:45;4.40;99.90
4787;DHT22;62338;48.832;9.422;2024-03-02T06:56:47;4.50;99.90
4787;DHT22;62338;48.832;9.422;2024-03-02T06:58:48;4.70;99.90
4787;DHT22;62338;48.832;9.422;2024-03-02T07:00:50;4.80;99.90
4787;DHT22;62338;48.832;9.422;2024-03-02T07:02:52;4.80;99.90
4787;DHT22;62338;48.832;9.422;2024-03-02T07:04:54;4.90;99.90
4787;DHT22;62338;48.832;9.422;2024-03-02T07:06:56;4.90;99.90
4787;DHT22;62338;48.832;9.422;2024-03-02T07:08:58;5.00;99.90
4787;DHT22;62338;48.832;9.422;2024-03-02T07:10:59;5.10;99.90
4787;DHT22;62338;48.832;9.422;2024-03-02T07:13:02;5.20;99.90
4787;DHT22;62338;48.832;9.422;2024-03-02T07:15:04;5.30;99.90
4787;DHT22;62338;48.832;9.422;2024-03-02T07:17:06;5.30;99.90
4787;DHT22;62338;48.832;9.422;2024-03-02T07:19:08;5.40;99.90
4787;DHT22;62338;48.832;9.422;2024-03-02T07:21:10;5.50;99.90
4787;DHT22;62338;48.832;9.422;2024-03-02T07:23:12;5.60;99.90
4787;DHT22;62338;48.832;9.422;2024-03-02T07:25:14;5.70;99.90
4787;DHT22;62338;48.832;9.422;2024-03-02T07:27:18;5.80;99.90
4787;DHT22;62338;48.832;9.422;2024-03-02T07:29:20;5.90;99.90
4787;DHT22;62338;48.832;9.422;2024-03-02T07:31:22;6.00;99.90
4787;DHT22;62338;48.832;9.422;2024-03-02T07:33:23;6.10;99.90
4787;DHT22;62338;48.832;9.422;2024-03-02T07:35:25;6.30;99.90
4787;DHT22;62338;48.832;9.422;2024-03-02T07:37:33;6.40;99.90
4787;DHT22;62338;48.832;9.422;2024-03-02T07:39:35;6.70;99.90
4787;DHT22;62338;48.832;9.422;2024-03-02T07:41:36;6.70;99.90
4787;DHT22;62338;48.832;9.422;2024-03-02T07:43:38;7.20;99.90
4787;DHT22;62338;48.832;9.422;2024-03-02T07:45:40;7.30;99.90
4787;DHT22;62338;48.832;9.422;2024-03-02T07:47:42;7.40;99.90
4787;DHT22;62338;48.832;9.422;2024-03-02T07:49:44;7.60;99.90
4787;DHT22;62338;48.832;9.422;2024-03-02T07:51:47;7.80;99.90
4787;DHT22;62338;48.832;9.422;2024-03-02T07:53:49;8.10;99.90
4787;DHT22;62338;48.832;9.422;2024-03-02T07:55:51;8.30;99.90
4787;DHT22;62338;48.832;9.422;2024-03-02T07:57:53;8.50;99.90
4787;DHT22;62338;48.832;9.422;2024-03-02T07:59:54;8.80;99.90
4787;DHT22;62338;48.832;9.422;2024-03-02T08:01:56;9.10;99.90
4787;DHT22;62338;48.832;9.422;2024-03-02T08:03:59;9.50;99.90
4787;DHT22;62338;48.832;9.422;2024-03-02T08:06:01;9.70;99.90
4787;DHT22;62338;48.832;9.422;2024-03-02T08:08:04;9.80;99.90
4787;DHT22;62338;48.832;9.422;2024-03-02T08:10:06;10.10;99.90
4787;DHT22;62338;48.832;9.422;2024-03-02T08:12:08;9.60;99.90
4787;DHT22;62338;48.832;9.422;2024-03-02T08:14:10;9.20;99.90
4787;DHT22;62338;48.832;9.422;2024-03-02T08:16:12;8.80;99.90
4787;DHT22;62338;48.832;9.422;2024-03-02T08:18:14;8.70;99.90
4787;DHT22;62338;48.832;9.422;2024-03-02T08:20:16;8.60;99.90
4787;DHT22;62338;48.832;9.422;2024-03-02T08:22:18;8.50;99.90
4787;DHT22;62338;48.832;9.422;2024-03-02T08:24:19;8.50;99.90
4787;DHT22;62338;48.832;9.422;2024-03-02T08:26:22;8.30;99.90
4787;DHT22;62338;48.832;9.422;2024-03-02T08:28:23;8.10;99.90
4787;DHT22;62338;48.832;9.422;2024-03-02T08:30:25;7.90;99.90
4787;DHT22;62338;48.832;9.422;2024-03-02T08:32:27;7.70;99.90
4787;DHT22;62338;48.832;9.422;2024-03-02T08:34:29;7.60;99.90
4787;DHT22;62338;48.832;9.422;2024-03-02T08:36:30;7.70;99.90
4787;DHT22;62338;48.832;9.422;2024-03-02T08:38:33;7.80;99.90
4787;DHT22;62338;48.832;9.422;2024-03-02T08:40:35;7.70;99.90
4787;DHT22;62338;48.832;9.422;2024-03-02T08:42:36;7.80;99.90
4787;DHT22;62338;48.832;9.422;2024-03-02T08:44:38;7.90;99.90
4787;DHT22;62338;48.832;9.422;2024-03-02T08:46:40;7.90;99.90
4787;DHT22;62338;48.832;9.422;2024-03-02T08:48:42;8.00;99.90
4787;DHT22;62338;48.832;9.422;2024-03-02T08:50:44;8.00;99.90
4787;DHT22;62338;48.832;9.422;2024-03-02T08:52:45;8.00;99.90
4787;DHT22;62338;48.832;9.422;2024-03-02T08:54:47;7.90;99.90
4787;DHT22;62338;48.832;9.422;2024-03-02T08:56:52;7.80;99.90
4787;DHT22;62338;48.832;9.422;2024-03-02T08:58:54;7.90;99.90
4787;DHT22;62338;48.832;9.422;2024-03-02T09:00:56;7.90;99.90
4787;DHT22;62338;48.832;9.422;2024-03-02T09:02:58;8.00;99.90
4787;DHT22;62338;48.832;9.422;2024-03-02T09:05:00;8.10;99.90
4787;DHT22;62338;48.832;9.422;2024-03-02T09:07:02;8.30;99.90
4787;DHT22;62338;48.832;9.422;2024-03-02T09:09:04;8.70;99.90
4787;DHT22;62338;48.832;9.422;2024-03-02T09:11:06;9.00;99.90
4787;DHT22;62338;48.832;9.422;2024-03-02T09:13:08;9.40;99.90
4787;DHT22;62338;48.832;9.422;2024-03-02T09:15:10;9.60;99.90
4787;DHT22;62338;48.832;9.422;2024-03-02T09:17:12;10.20;99.90
4787;DHT22;62338;48.832;9.422;2024-03-02T09:19:14;10.90;99.90
4787;DHT22;62338;48.832;9.422;2024-03-02T09:21:15;12.10;99.90
4787;DHT22;62338;48.832;9.422;2024-03-02T09:23:17;13.00;99.90
4787;DHT22;62338;48.832;9.422;2024-03-02T09:25:19;13.40;99.90
4787;DHT22;62338;48.832;9.422;2024-03-02T09:27:20;14.20;99.90
4787;DHT22;62338;48.832;9.422;2024-03-02T09:29:22;14.90;98.10
4787;DHT22;62338;48.832;9.422;2024-03-02T09:31:24;14.80;96.10
4787;DHT22;62338;48.832;9.422;2024-03-02T09:33:26;14.70;94.50
4787;DHT22;62338;48.832;9.422;2024-03-02T09:35:28;14.80;94.80
4787;DHT22;62338;48.832;9.422;2024-03-02T09:37:29;14.40;94.80
4787;DHT22;62338;48.832;9.422;2024-03-02T09:39:31;14.60;96.00
4787;DHT22;62338;48.832;9.422;2024-03-02T09:41:33;14.50;96.20
4787;DHT22;62338;48.832;9.422;2024-03-02T09:43:35;14.10;94.40
4787;DHT22;62338;48.832;9.422;2024-03-02T09:45:37;14.40;98.20
4787;DHT22;62338;48.832;9.422;2024-03-02T09:47:39;14.90;93.80
4787;DHT22;62338;48.832;9.422;2024-03-02T09:49:41;15.10;93.00
4787;DHT22;62338;48.832;9.422;2024-03-02T09:51:47;14.30;92.20
4787;DHT22;62338;48.832;9.422;2024-03-02T09:53:50;14.60;94.60
4787;DHT22;62338;48.832;9.422;2024-03-02T09:55:52;15.30;95.20
4787;DHT22;62338;48.832;9.422;2024-03-02T09:57:54;15.10;92.20
4787;DHT22;62338;48.832;9.422;2024-03-02T09:59:56;15.10;95.60
4787;DHT22;62338;48.832;9.422;2024-03-02T10:02:01;15.10;93.40
4787;DHT22;62338;48.832;9.422;2024-03-02T10:04:05;14.90;92.40
4787;DHT22;62338;48.832;9.422;2024-03-02T10:06:22;14.90;93.00
4787;DHT22;62338;48.832;9.422;2024-03-02T10:08:24;15.10;92.00
4787;DHT22;62338;48.832;9.422;2024-03-02T10:10:38;15.70;92.10
4787;DHT22;62338;48.832;9.422;2024-03-02T10:12:43;15.40;90.50
4787;DHT22;62338;48.832;9.422;2024-03-02T10:14:45;14.90;91.40
4787;DHT22;62338;48.832;9.422;2024-03-02T10:16:50;15.10;91.70
4787;DHT22;62338;48.832;9.422;2024-03-02T10:18:51;15.30;90.50
4787;DHT22;62338;48.832;9.422;2024-03-02T10:20:53;15.10;90.50
4787;DHT22;62338;48.832;9.422;2024-03-02T10:22:56;15.20;90.50
4787;DHT22;62338;48.832;9.422;2024-03-02T10:25:36;15.20;90.50
4787;DHT22;62338;48.832;9.422;2024-03-02T10:27:51;15.50;91.30
4787;DHT22;62338;48.832;9.422;2024-03-02T10:29:53;15.70;90.10
4787;DHT22;62338;48.832;9.422;2024-03-02T10:31:55;15.60;88.90
4787;DHT22;62338;48.832;9.422;2024-03-02T10:33:58;15.20;89.80
4787;DHT22;62338;48.832;9.422;2024-03-02T10:36:00;15.10;87.40
4787;DHT22;62338;48.832;9.422;2024-03-02T10:38:04;15.20;90.80
4787;DHT22;62338;48.832;9.422;2024-03-02T10:40:07;15.30;89.10
4787;DHT22;62338;48.832;9.422;2024-03-02T10:42:09;15.80;90.70
4787;DHT22;62338;48.832;9.422;2024-03-02T10:44:11;16.10;87.80
4787;DHT22;62338;48.832;9.422;2024-03-02T10:46:14;16.00;88.00
4787;DHT22;62338;48.832;9.422;2024-03-02T10:48:18;16.00;86.30
4787;DHT22;62338;48.832;9.422;2024-03-02T10:50:21;15.50;84.00
4787;DHT22;62338;48.832;9.422;2024-03-02T10:52:22;15.20;86.10
4787;DHT22;62338;48.832;9.422;2024-03-02T10:54:24;15.20;85.80
4787;DHT22;62338;48.832;9.422;2024-03-02T10:56:39;15.40;83.70
4787;DHT22;62338;48.832;9.422;2024-03-02T10:58:42;14.90;84.60
4787;DHT22;62338;48.832;9.422;2024-03-02T11:00:44;15.10;86.40
4787;DHT22;62338;48.832;9.422;2024-03-02T11:02:51;15.00;89.50
4787;DHT22;62338;48.832;9.422;2024-03-02T11:04:55;15.60;87.20
4787;DHT22;62338;48.832;9.422;2024-03-02T11:09:07;16.10;84.30
4787;DHT22;62338;48.832;9.422;2024-03-02T11:11:16;16.30;85.00
4787;DHT22;62338;48.832;9.422;2024-03-02T11:13:26;16.10;83.80
4787;DHT22;62338;48.832;9.422;2024-03-02T11:15:28;15.70;86.50
4787;DHT22;62338;48.832;9.422;2024-03-02T11:17:31;16.00;86.90
4787;DHT22;62338;48.832;9.422;2024-03-02T11:19:33;16.40;86.60
4787;DHT22;62338;48.832;9.422;2024-03-02T11:21:36;16.60;84.40
4787;DHT22;62338;48.832;9.422;2024-03-02T11:23:38;16.60;88.70
4787;DHT22;62338;48.832;9.422;2024-03-02T11:25:40;16.50;83.50
4787;DHT22;62338;48.832;9.422;2024-03-02T11:29:50;16.00;82.70
4787;DHT22;62338;48.832;9.422;2024-03-02T11:31:58;16.00;88.60
4787;DHT22;62338;48.832;9.422;2024-03-02T11:34:35;16.30;88.20
4787;DHT22;62338;48.832;9.422;2024-03-02T11:36:37;16.50;88.40
4787;DHT22;62338;48.832;9.422;2024-03-02T11:38:39;16.60;84.60
4787;DHT22;62338;48.832;9.422;2024-03-02T11:40:44;16.60;82.70
4787;DHT22;62338;48.832;9.422;2024-03-02T11:42:46;16.50;86.50
4787;DHT22;62338;48.832;9.422;2024-03-02T11:44:48;17.00;90.50
4787;DHT22;62338;48.832;9.422;2024-03-02T11:47:00;16.70;80.40
4787;DHT22;62338;48.832;9.422;2024-03-02T11:49:02;16.80;84.70
4787;DHT22;62338;48.832;9.422;2024-03-02T11:51:06;16.90;81.80
4787;DHT22;62338;48.832;9.422;2024-03-02T11:53:09;16.90;86.90
4787;DHT22;62338;48.832;9.422;2024-03-02T11:55:11;17.00;86.10
4787;DHT22;62338;48.832;9.422;2024-03-02T11:57:19;17.50;85.30
4787;DHT22;62338;48.832;9.422;2024-03-02T11:59:22;17.60;80.30
4787;DHT22;62338;48.832;9.422;2024-03-02T12:01:24;17.20;82.10
4787;DHT22;62338;48.832;9.422;2024-03-02T12:03:26;17.30;82.30
4787;DHT22;62338;48.832;9.422;2024-03-02T12:05:30;17.70;81.80
4787;DHT22;62338;48.832;9.422;2024-03-02T12:07:32;17.90;82.90
4787;DHT22;62338;48.832;9.422;2024-03-02T12:09:34;17.60;80.10
4787;DHT22;62338;48.832;9.422;2024-03-02T12:11:35;17.90;82.50
4787;DHT22;62338;48.832;9.422;2024-03-02T12:13:37;17.90;81.70
4787;DHT22;62338;48.832;9.422;2024-03-02T12:15:39;18.20;81.40
4787;DHT22;62338;48.832;9.422;2024-03-02T12:17:43;18.40;80.30
4787;DHT22;62338;48.832;9.422;2024-03-02T12:19:46;18.50;79.30
4787;DHT22;62338;48.832;9.422;2024-03-02T12:21:48;18.60;81.00
4787;DHT22;62338;48.832;9.422;2024-03-02T12:23:50;18.10;78.00
4787;DHT22;62338;48.832;9.422;2024-03-02T12:25:52;18.40;81.90
4787;DHT22;62338;48.832;9.422;2024-03-02T12:27:55;18.80;79.30
4787;DHT22;62338;48.832;9.422;2024-03-02T12:29:57;19.00;79.20
4787;DHT22;62338;48.832;9.422;2024-03-02T12:31:59;19.50;76.30
4787;DHT22;62338;48.832;9.422;2024-03-02T12:34:02;19.40;75.30
4787;DHT22;62338;48.832;9.422;2024-03-02T12:36:05;19.40;74.70
4787;DHT22;62338;48.832;9.422;2024-03-02T12:38:06;19.50;75.30
4787;DHT22;62338;48.832;9.422;2024-03-02T12:40:10;19.80;74.30
4787;DHT22;62338;48.832;9.422;2024-03-02T12:42:13;19.50;71.90
4787;DHT22;62338;48.832;9.422;2024-03-02T12:44:14;18.80;71.60
4787;DHT22;62338;48.832;9.422;2024-03-02T12:46:16;18.50;72.80
4787;DHT22;62338;48.832;9.422;2024-03-02T12:48:18;18.00;75.30
4787;DHT22;62338;48.832;9.422;2024-03-02T12:50:21;18.40;77.00
4787;DHT22;62338;48.832;9.422;2024-03-02T12:52:23;19.00;74.50
4787;DHT22;62338;48.832;9.422;2024-03-02T12:54:25;19.50;75.40
4787;DHT22;62338;48.832;9.422;2024-03-02T12:56:28;19.90;71.70
4787;DHT22;62338;48.832;9.422;2024-03-02T12:58:39;20.90;72.80
4787;DHT22;62338;48.832;9.422;2024-03-02T13:00:41;21.00;71.20
4787;DHT22;62338;48.832;9.422;2024-03-02T13:02:43;21.90;70.00
4787;DHT22;62338;48.832;9.422;2024-03-02T13:04:53;22.70;66.10
4787;DHT22;62338;48.832;9.422;2024-03-02T13:06:56;23.40;63.60
4787;DHT22;62338;48.832;9.422;2024-03-02T13:08:59;23.60;60.20
4787;DHT22;62338;48.832;9.422;2024-03-02T13:11:01;24.00;60.50
4787;DHT22;62338;48.832;9.422;2024-03-02T13:13:03;23.10;57.80
4787;DHT22;62338;48.832;9.422;2024-03-02T13:15:05;22.70;59.00
4787;DHT22;62338;48.832;9.422;2024-03-02T13:17:11;22.80;58.80
4787;DHT22;62338;48.832;9.422;2024-03-02T13:19:18;22.90;57.40
4787;DHT22;62338;48.832;9.422;2024-03-02T13:21:20;23.10;57.20
4787;DHT22;62338;48.832;9.422;2024-03-02T13:23:22;22.70;56.10